sensor_id;sensor_type;location;lat;lon;timestamp;P1;durP1;ratioP1;P2;durP2;ratioP2
39998;SDS011;25696;42.646;23.368;2022-09-21T00:03:28;5.22;;;4.38;;
39998;SDS011;25696;42.646;23.368;2022-09-21T00:06:00;7.32;;;4.18;;
39998;SDS011;25696;42.646;23.368;2022-09-21T00:08:36;8.77;;;4.43;;
39998;SDS011;25696;42.646;23.368;2022-09-21T00:11:03;8.05;;;4.07;;
39998;SDS011;25696;42.646;23.368;2022-09-21T00:13:30;5.65;;;3.47;;
39998;SDS011;25696;42.646;23.368;2022-09-21T00:15:57;6.18;;;3.38;;
39998;SDS011;25696;42.646;23.368;2022-09-21T00:18:23;6.25;;;3.55;;
39998;SDS011;25696;42.646;23.368;2022-09-21T00:20:49;7.65;;;3.70;;
39998;SDS011;25696;42.646;23.368;2022-09-21T00:23:16;6.65;;;3.55;;
39998;SDS011;25696;42.646;23.368;2022-09-21T00:28:07;6.97;;;3.70;;
39998;SDS011;25696;42.646;23.368;2022-09-21T00:30:33;4.97;;;3.40;;
39998;SDS011;25696;42.646;23.368;2022-09-21T00:32:58;5.70;;;3.67;;
39998;SDS011;25696;42.646;23.368;2022-09-21T00:35:24;6.30;;;3.03;;
39998;SDS011;25696;42.646;23.368;2022-09-21T00:37:49;3.72;;;3.20;;
39998;SDS011;25696;42.646;23.368;2022-09-21T00:40:14;5.43;;;3.30;;
39998;SDS011;25696;42.646;23.368;2022-09-21T00:42:40;4.15;;;3.40;;
39998;SDS011;25696;42.646;23.368;2022-09-21T00:45:05;5.97;;;3.58;;
39998;SDS011;25696;42.646;23.368;2022-09-21T00:50:04;5.82;;;3.72;;
39998;SDS011;25696;42.646;23.368;2022-09-21T00:52:33;7.18;;;3.90;;
39998;SDS011;25696;42.646;23.368;2022-09-21T00:55:07;7.15;;;4.18;;
39998;SDS011;25696;42.646;23.368;2022-09-21T00:57:38;8.32;;;4.45;;
39998;SDS011;25696;42.646;23.368;2022-09-21T01:00:05;9.27;;;4.75;;
39998;SDS011;25696;42.646;23.368;2022-09-21T01:02:33;9.77;;;4.72;;
39998;SDS011;25696;42.646;23.368;2022-09-21T01:04:59;9.50;;;4.50;;
39998;SDS011;25696;42.646;23.368;2022-09-21T01:07:27;6.70;;;4.53;;
39998;SDS011;25696;42.646;23.368;2022-09-21T01:09:56;9.10;;;5.03;;
39998;SDS011;25696;42.646;23.368;2022-09-21T01:15:34;7.15;;;4.72;;
39998;SDS011;25696;42.646;23.368;2022-09-21T01:26:08;9.75;;;5.50;;
39998;SDS011;25696;42.646;23.368;2022-09-21T01:31:42;10.18;;;6.00;;
39998;SDS011;25696;42.646;23.368;2022-09-21T01:34:16;8.93;;;5.97;;
39998;SDS011;25696;42.646;23.368;2022-09-21T01:36:47;12.83;;;5.60;;
39998;SDS011;25696;42.646;23.368;2022-09-21T01:39:17;12.00;;;6.15;;
39998;SDS011;25696;42.646;23.368;2022-09-21T01:41:45;9.05;;;5.53;;
39998;SDS011;25696;42.646;23.368;2022-09-21T01:44:14;8.70;;;5.68;;
39998;SDS011;25696;42.646;23.368;2022-09-21T01:46:44;8.85;;;5.97;;
39998;SDS011;25696;42.646;23.368;2022-09-21T01:49:14;9.25;;;6.10;;
39998;SDS011;25696;42.646;23.368;2022-09-21T01:51:57;11.18;;;5.72;;
39998;SDS011;25696;42.646;23.368;2022-09-21T01:54:31;9.15;;;6.13;;
39998;SDS011;25696;42.646;23.368;2022-09-21T01:57:10;6.65;;;5.60;;
39998;SDS011;25696;42.646;23.368;2022-09-21T01:59:51;9.07;;;5.60;;
39998;SDS011;25696;42.646;23.368;2022-09-21T02:02:41;7.50;;;5.55;;
39998;SDS011;25696;42.646;23.368;2022-09-21T02:05:12;9.85;;;5.63;;
39998;SDS011;25696;42.646;23.368;2022-09-21T02:07:40;7.40;;;5.45;;
39998;SDS011;25696;42.646;23.368;2022-09-21T02:10:07;7.90;;;5.72;;
39998;SDS011;25696;42.646;23.368;2022-09-21T02:12:37;8.35;;;5.53;;
39998;SDS011;25696;42.646;23.368;2022-09-21T02:15:04;8.75;;;5.85;;
39998;SDS011;25696;42.646;23.368;2022-09-21T02:22:51;8.23;;;5.43;;
39998;SDS011;25696;42.646;23.368;2022-09-21T02:25:24;9.88;;;5.72;;
39998;SDS011;25696;42.646;23.368;2022-09-21T02:28:06;8.75;;;5.50;;
39998;SDS011;25696;42.646;23.368;2022-09-21T02:30:46;7.68;;;5.05;;
39998;SDS011;25696;42.646;23.368;2022-09-21T02:35:54;8.45;;;5.53;;
39998;SDS011;25696;42.646;23.368;2022-09-21T02:38:34;9.20;;;5.80;;
39998;SDS011;25696;42.646;23.368;2022-09-21T02:46:56;7.65;;;4.82;;
39998;SDS011;25696;42.646;23.368;2022-09-21T02:49:36;9.65;;;5.13;;
39998;SDS011;25696;42.646;23.368;2022-09-21T02:52:09;10.07;;;5.43;;
39998;SDS011;25696;42.646;23.368;2022-09-21T02:54:38;8.50;;;4.68;;
39998;SDS011;25696;42.646;23.368;2022-09-21T02:57:08;7.47;;;4.40;;
39998;SDS011;25696;42.646;23.368;2022-09-21T02:59:35;7.50;;;3.88;;
39998;SDS011;25696;42.646;23.368;2022-09-21T03:02:01;7.18;;;3.83;;
39998;SDS011;25696;42.646;23.368;2022-09-21T03:04:28;8.63;;;3.90;;
39998;SDS011;25696;42.646;23.368;2022-09-21T03:06:54;6.72;;;3.60;;
39998;SDS011;25696;42.646;23.368;2022-09-21T03:09:21;6.68;;;3.97;;
39998;SDS011;25696;42.646;23.368;2022-09-21T03:11:48;6.07;;;3.45;;
39998;SDS011;25696;42.646;23.368;2022-09-21T03:14:17;6.93;;;4.25;;
39998;SDS011;25696;42.646;23.368;2022-09-21T03:16:43;48.45;;;24.98;;
39998;SDS011;25696;42.646;23.368;2022-09-21T03:19:09;10.20;;;5.72;;
39998;SDS011;25696;42.646;23.368;2022-09-21T03:21:36;12.15;;;6.13;;
39998;SDS011;25696;42.646;23.368;2022-09-21T03:24:02;10.52;;;4.03;;
39998;SDS011;25696;42.646;23.368;2022-09-21T03:26:27;22.85;;;12.88;;
39998;SDS011;25696;42.646;23.368;2022-09-21T03:28:53;17.85;;;9.07;;
39998;SDS011;25696;42.646;23.368;2022-09-21T03:38:35;5.70;;;4.07;;
39998;SDS011;25696;42.646;23.368;2022-09-21T03:41:01;10.23;;;5.65;;
39998;SDS011;25696;42.646;23.368;2022-09-21T03:43:27;17.23;;;8.05;;
39998;SDS011;25696;42.646;23.368;2022-09-21T03:45:53;9.77;;;5.57;;
39998;SDS011;25696;42.646;23.368;2022-09-21T03:48:18;16.35;;;9.02;;
39998;SDS011;25696;42.646;23.368;2022-09-21T03:50:45;6.43;;;4.43;;
39998;SDS011;25696;42.646;23.368;2022-09-21T03:53:11;21.67;;;10.23;;
39998;SDS011;25696;42.646;23.368;2022-09-21T03:55:37;9.02;;;4.70;;
39998;SDS011;25696;42.646;23.368;2022-09-21T03:58:02;12.73;;;6.88;;
39998;SDS011;25696;42.646;23.368;2022-09-21T04:00:29;10.18;;;4.82;;
39998;SDS011;25696;42.646;23.368;2022-09-21T04:02:54;9.68;;;5.43;;
39998;SDS011;25696;42.646;23.368;2022-09-21T04:05:20;10.32;;;6.82;;
39998;SDS011;25696;42.646;23.368;2022-09-21T04:07:46;25.77;;;14.23;;
39998;SDS011;25696;42.646;23.368;2022-09-21T04:10:16;47.00;;;25.73;;
39998;SDS011;25696;42.646;23.368;2022-09-21T04:12:44;9.07;;;5.07;;
39998;SDS011;25696;42.646;23.368;2022-09-21T04:15:14;10.90;;;5.60;;
39998;SDS011;25696;42.646;23.368;2022-09-21T04:17:43;21.13;;;10.70;;
39998;SDS011;25696;42.646;23.368;2022-09-21T04:20:15;20.88;;;10.73;;
39998;SDS011;25696;42.646;23.368;2022-09-21T04:22:40;18.00;;;10.55;;
39998;SDS011;25696;42.646;23.368;2022-09-21T04:25:06;8.55;;;5.70;;
39998;SDS011;25696;42.646;23.368;2022-09-21T04:27:31;19.55;;;7.68;;
39998;SDS011;25696;42.646;23.368;2022-09-21T04:29:57;38.45;;;12.80;;
39998;SDS011;25696;42.646;23.368;2022-09-21T04:32:23;50.30;;;24.27;;
39998;SDS011;25696;42.646;23.368;2022-09-21T04:34:49;12.48;;;7.57;;
39998;SDS011;25696;42.646;23.368;2022-09-21T04:37:14;14.75;;;6.40;;
39998;SDS011;25696;42.646;23.368;2022-09-21T04:39:40;31.58;;;16.83;;
39998;SDS011;25696;42.646;23.368;2022-09-21T04:42:05;15.15;;;8.70;;
39998;SDS011;25696;42.646;23.368;2022-09-21T04:44:31;10.05;;;5.47;;
39998;SDS011;25696;42.646;23.368;2022-09-21T04:46:56;15.93;;;8.98;;
39998;SDS011;25696;42.646;23.368;2022-09-21T04:49:22;12.13;;;6.20;;
39998;SDS011;25696;42.646;23.368;2022-09-21T04:51:48;12.02;;;5.93;;
39998;SDS011;25696;42.646;23.368;2022-09-21T04:56:39;9.95;;;5.10;;
39998;SDS011;25696;42.646;23.368;2022-09-21T05:03:55;18.98;;;7.30;;
39998;SDS011;25696;42.646;23.368;2022-09-21T05:06:26;11.25;;;5.65;;
39998;SDS011;25696;42.646;23.368;2022-09-21T05:08:52;18.65;;;6.97;;
39998;SDS011;25696;42.646;23.368;2022-09-21T05:11:36;11.82;;;5.60;;
39998;SDS011;25696;42.646;23.368;2022-09-21T05:18:54;23.80;;;12.20;;
39998;SDS011;25696;42.646;23.368;2022-09-21T05:21:20;20.15;;;8.98;;
39998;SDS011;25696;42.646;23.368;2022-09-21T05:23:45;14.73;;;5.45;;
39998;SDS011;25696;42.646;23.368;2022-09-21T05:26:11;22.80;;;5.60;;
39998;SDS011;25696;42.646;23.368;2022-09-21T05:28:36;18.55;;;5.30;;
39998;SDS011;25696;42.646;23.368;2022-09-21T05:31:49;23.33;;;8.88;;
39998;SDS011;25696;42.646;23.368;2022-09-21T05:33:51;11.18;;;5.25;;
39998;SDS011;25696;42.646;23.368;2022-09-21T05:36:37;11.50;;;5.30;;
39998;SDS011;25696;42.646;23.368;2022-09-21T05:39:04;12.43;;;5.32;;
39998;SDS011;25696;42.646;23.368;2022-09-21T05:41:31;11.90;;;5.18;;
39998;SDS011;25696;42.646;23.368;2022-09-21T05:43:56;10.65;;;4.95;;
39998;SDS011;25696;42.646;23.368;2022-09-21T05:49:22;15.48;;;5.00;;
39998;SDS011;25696;42.646;23.368;2022-09-21T05:51:55;13.02;;;4.80;;
39998;SDS011;25696;42.646;23.368;2022-09-21T06:04:55;13.05;;;4.95;;
39998;SDS011;25696;42.646;23.368;2022-09-21T06:07:23;11.07;;;5.70;;
39998;SDS011;25696;42.646;23.368;2022-09-21T06:09:49;12.68;;;5.10;;
39998;SDS011;25696;42.646;23.368;2022-09-21T06:12:14;10.32;;;4.10;;
39998;SDS011;25696;42.646;23.368;2022-09-21T06:14:40;11.05;;;5.00;;
39998;SDS011;25696;42.646;23.368;2022-09-21T06:17:06;12.85;;;4.68;;
39998;SDS011;25696;42.646;23.368;2022-09-21T06:19:31;13.25;;;5.15;;
39998;SDS011;25696;42.646;23.368;2022-09-21T06:36:29;14.77;;;4.82;;
39998;SDS011;25696;42.646;23.368;2022-09-21T06:41:20;14.68;;;4.60;;
39998;SDS011;25696;42.646;23.368;2022-09-21T06:43:46;12.43;;;4.47;;
39998;SDS011;25696;42.646;23.368;2022-09-21T06:46:11;9.95;;;3.90;;
39998;SDS011;25696;42.646;23.368;2022-09-21T06:48:37;11.02;;;4.28;;
39998;SDS011;25696;42.646;23.368;2022-09-21T06:51:03;8.95;;;3.83;;
39998;SDS011;25696;42.646;23.368;2022-09-21T06:53:30;8.43;;;4.20;;
39998;SDS011;25696;42.646;23.368;2022-09-21T07:03:17;4.35;;;2.60;;
39998;SDS011;25696;42.646;23.368;2022-09-21T07:05:52;2.58;;;1.73;;
39998;SDS011;25696;42.646;23.368;2022-09-21T07:10:44;5.07;;;2.03;;
39998;SDS011;25696;42.646;23.368;2022-09-21T07:13:10;4.07;;;1.70;;
39998;SDS011;25696;42.646;23.368;2022-09-21T07:15:35;5.20;;;1.77;;
39998;SDS011;25696;42.646;23.368;2022-09-21T07:18:09;5.72;;;1.50;;
39998;SDS011;25696;42.646;23.368;2022-09-21T07:20:43;4.40;;;1.60;;
39998;SDS011;25696;42.646;23.368;2022-09-21T07:23:13;6.45;;;2.03;;
39998;SDS011;25696;42.646;23.368;2022-09-21T07:25:43;6.53;;;1.30;;
39998;SDS011;25696;42.646;23.368;2022-09-21T07:28:16;4.03;;;1.95;;
39998;SDS011;25696;42.646;23.368;2022-09-21T07:30:43;3.40;;;1.50;;
39998;SDS011;25696;42.646;23.368;2022-09-21T07:33:08;2.85;;;1.35;;
39998;SDS011;25696;42.646;23.368;2022-09-21T07:35:34;4.53;;;1.50;;
39998;SDS011;25696;42.646;23.368;2022-09-21T07:38:00;3.15;;;1.70;;
39998;SDS011;25696;42.646;23.368;2022-09-21T07:40:27;2.53;;;1.77;;
39998;SDS011;25696;42.646;23.368;2022-09-21T07:42:56;8.07;;;1.80;;
39998;SDS011;25696;42.646;23.368;2022-09-21T07:45:23;4.00;;;1.52;;
39998;SDS011;25696;42.646;23.368;2022-09-21T07:47:49;3.70;;;1.55;;
39998;SDS011;25696;42.646;23.368;2022-09-21T07:50:15;3.30;;;1.80;;
39998;SDS011;25696;42.646;23.368;2022-09-21T07:52:40;4.75;;;1.75;;
39998;SDS011;25696;42.646;23.368;2022-09-21T07:55:06;3.83;;;1.70;;
39998;SDS011;25696;42.646;23.368;2022-09-21T07:57:32;2.25;;;1.60;;
39998;SDS011;25696;42.646;23.368;2022-09-21T08:00:16;5.03;;;1.73;;
39998;SDS011;25696;42.646;23.368;2022-09-21T08:02:41;5.85;;;1.80;;
39998;SDS011;25696;42.646;23.368;2022-09-21T08:05:07;3.08;;;1.63;;
39998;SDS011;25696;42.646;23.368;2022-09-21T08:07:34;8.43;;;1.60;;
39998;SDS011;25696;42.646;23.368;2022-09-21T08:09:59;3.30;;;1.27;;
39998;SDS011;25696;42.646;23.368;2022-09-21T08:12:24;5.93;;;1.80;;
39998;SDS011;25696;42.646;23.368;2022-09-21T08:14:50;6.00;;;1.67;;
39998;SDS011;25696;42.646;23.368;2022-09-21T08:17:15;3.47;;;1.80;;
39998;SDS011;25696;42.646;23.368;2022-09-21T08:19:41;4.47;;;2.20;;
39998;SDS011;25696;42.646;23.368;2022-09-21T08:22:06;7.15;;;1.90;;
39998;SDS011;25696;42.646;23.368;2022-09-21T08:24:32;4.00;;;1.70;;
39998;SDS011;25696;42.646;23.368;2022-09-21T08:26:59;3.35;;;1.90;;
39998;SDS011;25696;42.646;23.368;2022-09-21T08:29:24;12.20;;;2.13;;
39998;SDS011;25696;42.646;23.368;2022-09-21T08:31:51;4.07;;;2.15;;
39998;SDS011;25696;42.646;23.368;2022-09-21T08:34:17;3.83;;;2.00;;
39998;SDS011;25696;42.646;23.368;2022-09-21T08:36:43;5.85;;;1.75;;
39998;SDS011;25696;42.646;23.368;2022-09-21T08:39:09;3.47;;;2.00;;
39998;SDS011;25696;42.646;23.368;2022-09-21T08:41:43;5.40;;;1.90;;
39998;SDS011;25696;42.646;23.368;2022-09-21T08:44:21;9.60;;;2.00;;
39998;SDS011;25696;42.646;23.368;2022-09-21T08:47:35;9.23;;;2.30;;
39998;SDS011;25696;42.646;23.368;2022-09-21T08:49:46;7.88;;;1.85;;
39998;SDS011;25696;42.646;23.368;2022-09-21T08:52:17;3.75;;;1.55;;
39998;SDS011;25696;42.646;23.368;2022-09-21T08:57:11;4.65;;;1.77;;
39998;SDS011;25696;42.646;23.368;2022-09-21T08:59:39;7.55;;;1.83;;
39998;SDS011;25696;42.646;23.368;2022-09-21T09:02:21;4.07;;;1.63;;
39998;SDS011;25696;42.646;23.368;2022-09-21T09:13:46;2.90;;;1.27;;
39998;SDS011;25696;42.646;23.368;2022-09-21T09:19:33;6.82;;;2.30;;
39998;SDS011;25696;42.646;23.368;2022-09-21T09:22:01;4.65;;;1.70;;
39998;SDS011;25696;42.646;23.368;2022-09-21T09:27:00;5.88;;;3.25;;
39998;SDS011;25696;42.646;23.368;2022-09-21T09:29:53;5.93;;;2.30;;
39998;SDS011;25696;42.646;23.368;2022-09-21T09:32:29;11.68;;;7.50;;
39998;SDS011;25696;42.646;23.368;2022-09-21T09:37:50;3.88;;;1.60;;
39998;SDS011;25696;42.646;23.368;2022-09-21T09:40:24;5.18;;;2.35;;
39998;SDS011;25696;42.646;23.368;2022-09-21T09:43:03;4.45;;;2.25;;
39998;SDS011;25696;42.646;23.368;2022-09-21T09:51:37;7.80;;;4.10;;
39998;SDS011;25696;42.646;23.368;2022-09-21T09:54:04;7.00;;;2.22;;
39998;SDS011;25696;42.646;23.368;2022-09-21T09:56:38;4.00;;;2.05;;
39998;SDS011;25696;42.646;23.368;2022-09-21T09:59:04;6.50;;;4.70;;
39998;SDS011;25696;42.646;23.368;2022-09-21T10:01:39;4.35;;;1.67;;
39998;SDS011;25696;42.646;23.368;2022-09-21T10:04:10;3.53;;;1.80;;
39998;SDS011;25696;42.646;23.368;2022-09-21T10:06:37;2.70;;;1.73;;
39998;SDS011;25696;42.646;23.368;2022-09-21T10:16:43;6.85;;;1.52;;
39998;SDS011;25696;42.646;23.368;2022-09-21T10:21:42;5.57;;;1.85;;
39998;SDS011;25696;42.646;23.368;2022-09-21T10:32:01;4.60;;;1.27;;
39998;SDS011;25696;42.646;23.368;2022-09-21T10:34:29;11.30;;;1.27;;
39998;SDS011;25696;42.646;23.368;2022-09-21T10:36:59;2.83;;;1.40;;
39998;SDS011;25696;42.646;23.368;2022-09-21T10:39:33;5.15;;;1.27;;
39998;SDS011;25696;42.646;23.368;2022-09-21T10:42:03;6.10;;;1.30;;
39998;SDS011;25696;42.646;23.368;2022-09-21T10:44:36;2.05;;;1.27;;
39998;SDS011;25696;42.646;23.368;2022-09-21T10:47:19;3.22;;;1.00;;
39998;SDS011;25696;42.646;23.368;2022-09-21T10:49:46;2.13;;;1.20;;
39998;SDS011;25696;42.646;23.368;2022-09-21T10:52:15;3.53;;;1.00;;
39998;SDS011;25696;42.646;23.368;2022-09-21T10:54:43;3.45;;;1.40;;
39998;SDS011;25696;42.646;23.368;2022-09-21T10:57:13;1.85;;;1.13;;
39998;SDS011;25696;42.646;23.368;2022-09-21T10:59:42;6.13;;;1.40;;
39998;SDS011;25696;42.646;23.368;2022-09-21T11:07:51;3.15;;;2.20;;
39998;SDS011;25696;42.646;23.368;2022-09-21T11:10:37;3.83;;;1.75;;
39998;SDS011;25696;42.646;23.368;2022-09-21T11:16:00;3.53;;;1.83;;
39998;SDS011;25696;42.646;23.368;2022-09-21T11:21:26;3.75;;;2.28;;
39998;SDS011;25696;42.646;23.368;2022-09-21T11:24:30;1.35;;;0.90;;
39998;SDS011;25696;42.646;23.368;2022-09-21T11:30:05;0.90;;;0.80;;
39998;SDS011;25696;42.646;23.368;2022-09-21T11:41:12;2.85;;;1.10;;
39998;SDS011;25696;42.646;23.368;2022-09-21T12:13:32;2.75;;;0.80;;
39998;SDS011;25696;42.646;23.368;2022-09-21T12:21:27;5.65;;;1.00;;
39998;SDS011;25696;42.646;23.368;2022-09-21T12:24:03;1.40;;;0.90;;
39998;SDS011;25696;42.646;23.368;2022-09-21T12:26:40;1.35;;;1.10;;
39998;SDS011;25696;42.646;23.368;2022-09-21T12:29:13;4.32;;;1.25;;
39998;SDS011;25696;42.646;23.368;2022-09-21T12:31:48;2.78;;;1.45;;
39998;SDS011;25696;42.646;23.368;2022-09-21T12:34:23;4.35;;;2.00;;
39998;SDS011;25696;42.646;23.368;2022-09-21T12:44:54;4.57;;;2.25;;
39998;SDS011;25696;42.646;23.368;2022-09-21T12:48:08;2.33;;;0.98;;
39998;SDS011;25696;42.646;23.368;2022-09-21T12:50:18;1.35;;;0.70;;
39998;SDS011;25696;42.646;23.368;2022-09-21T12:52:50;2.53;;;1.63;;
39998;SDS011;25696;42.646;23.368;2022-09-21T12:55:22;4.05;;;2.00;;
39998;SDS011;25696;42.646;23.368;2022-09-21T13:01:08;2.80;;;1.88;;
39998;SDS011;25696;42.646;23.368;2022-09-21T13:06:44;5.60;;;3.45;;
39998;SDS011;25696;42.646;23.368;2022-09-21T13:09:31;3.13;;;1.48;;
39998;SDS011;25696;42.646;23.368;2022-09-21T13:12:05;3.97;;;0.82;;
39998;SDS011;25696;42.646;23.368;2022-09-21T13:14:40;1.63;;;1.02;;
39998;SDS011;25696;42.646;23.368;2022-09-21T13:17:17;4.28;;;1.20;;
39998;SDS011;25696;42.646;23.368;2022-09-21T13:19:48;2.78;;;1.70;;
39998;SDS011;25696;42.646;23.368;2022-09-21T13:22:22;1.33;;;0.85;;
39998;SDS011;25696;42.646;23.368;2022-09-21T13:24:57;2.33;;;0.73;;
39998;SDS011;25696;42.646;23.368;2022-09-21T13:33:03;0.75;;;0.60;;
39998;SDS011;25696;42.646;23.368;2022-09-21T13:49:00;1.55;;;1.00;;
39998;SDS011;25696;42.646;23.368;2022-09-21T13:51:33;1.00;;;0.88;;
39998;SDS011;25696;42.646;23.368;2022-09-21T13:53:59;2.67;;;0.80;;
39998;SDS011;25696;42.646;23.368;2022-09-21T13:56:26;5.68;;;2.50;;
39998;SDS011;25696;42.646;23.368;2022-09-21T13:58:53;3.28;;;0.90;;
39998;SDS011;25696;42.646;23.368;2022-09-21T14:01:29;1.73;;;0.80;;
39998;SDS011;25696;42.646;23.368;2022-09-21T14:03:58;2.42;;;0.80;;
39998;SDS011;25696;42.646;23.368;2022-09-21T14:06:27;1.40;;;0.75;;
39998;SDS011;25696;42.646;23.368;2022-09-21T14:11:43;3.67;;;1.27;;
39998;SDS011;25696;42.646;23.368;2022-09-21T14:14:32;3.80;;;1.50;;
39998;SDS011;25696;42.646;23.368;2022-09-21T14:17:16;4.10;;;1.90;;
39998;SDS011;25696;42.646;23.368;2022-09-21T14:20:29;3.47;;;2.08;;
39998;SDS011;25696;42.646;23.368;2022-09-21T14:25:57;2.30;;;1.70;;
39998;SDS011;25696;42.646;23.368;2022-09-21T14:28:38;3.75;;;1.30;;
39998;SDS011;25696;42.646;23.368;2022-09-21T14:31:12;5.95;;;1.70;;
39998;SDS011;25696;42.646;23.368;2022-09-21T14:33:46;3.45;;;2.50;;
39998;SDS011;25696;42.646;23.368;2022-09-21T14:36:18;10.40;;;2.65;;
39998;SDS011;25696;42.646;23.368;2022-09-21T14:38:53;9.80;;;6.03;;
39998;SDS011;25696;42.646;23.368;2022-09-21T14:41:23;2.90;;;1.90;;
39998;SDS011;25696;42.646;23.368;2022-09-21T14:43:51;5.72;;;2.75;;
39998;SDS011;25696;42.646;23.368;2022-09-21T14:51:47;2.65;;;2.30;;
39998;SDS011;25696;42.646;23.368;2022-09-21T14:54:32;2.22;;;1.80;;
39998;SDS011;25696;42.646;23.368;2022-09-21T14:59:45;2.50;;;1.67;;
39998;SDS011;25696;42.646;23.368;2022-09-21T15:02:26;4.60;;;1.98;;
39998;SDS011;25696;42.646;23.368;2022-09-21T15:11:04;3.78;;;2.47;;
39998;SDS011;25696;42.646;23.368;2022-09-21T15:13:56;4.38;;;2.22;;
39998;SDS011;25696;42.646;23.368;2022-09-21T15:16:39;7.07;;;2.40;;
39998;SDS011;25696;42.646;23.368;2022-09-21T15:21:36;7.05;;;2.63;;
39998;SDS011;25696;42.646;23.368;2022-09-21T15:24:18;8.95;;;5.72;;
39998;SDS011;25696;42.646;23.368;2022-09-21T15:26:52;4.93;;;2.25;;
39998;SDS011;25696;42.646;23.368;2022-09-21T15:29:26;9.43;;;2.63;;
39998;SDS011;25696;42.646;23.368;2022-09-21T15:34:21;6.82;;;2.42;;
39998;SDS011;25696;42.646;23.368;2022-09-21T15:36:47;7.43;;;2.53;;
39998;SDS011;25696;42.646;23.368;2022-09-21T15:39:34;8.10;;;4.82;;
39998;SDS011;25696;42.646;23.368;2022-09-21T15:44:34;3.08;;;2.60;;
39998;SDS011;25696;42.646;23.368;2022-09-21T15:47:01;3.03;;;2.25;;
39998;SDS011;25696;42.646;23.368;2022-09-21T15:49:30;5.00;;;3.63;;
39998;SDS011;25696;42.646;23.368;2022-09-21T15:52:02;8.90;;;2.92;;
39998;SDS011;25696;42.646;23.368;2022-09-21T15:55:05;4.35;;;3.13;;
39998;SDS011;25696;42.646;23.368;2022-09-21T15:57:40;4.20;;;2.55;;
39998;SDS011;25696;42.646;23.368;2022-09-21T16:02:38;3.53;;;2.08;;
39998;SDS011;25696;42.646;23.368;2022-09-21T16:05:06;3.50;;;2.33;;
39998;SDS011;25696;42.646;23.368;2022-09-21T16:07:38;2.45;;;1.42;;
39998;SDS011;25696;42.646;23.368;2022-09-21T16:13:17;3.97;;;1.33;;
39998;SDS011;25696;42.646;23.368;2022-09-21T16:16:09;6.47;;;3.15;;
39998;SDS011;25696;42.646;23.368;2022-09-21T16:21:19;3.45;;;2.17;;
39998;SDS011;25696;42.646;23.368;2022-09-21T16:23:51;2.28;;;1.48;;
39998;SDS011;25696;42.646;23.368;2022-09-21T16:26:37;6.32;;;2.35;;
39998;SDS011;25696;42.646;23.368;2022-09-21T16:29:15;3.35;;;2.20;;
39998;SDS011;25696;42.646;23.368;2022-09-21T16:31:42;3.47;;;2.03;;
39998;SDS011;25696;42.646;23.368;2022-09-21T16:34:17;4.25;;;2.08;;
39998;SDS011;25696;42.646;23.368;2022-09-21T16:36:44;5.00;;;2.05;;
39998;SDS011;25696;42.646;23.368;2022-09-21T16:39:14;2.28;;;1.90;;
39998;SDS011;25696;42.646;23.368;2022-09-21T16:44:19;4.47;;;2.00;;
39998;SDS011;25696;42.646;23.368;2022-09-21T16:54:17;4.88;;;2.08;;
39998;SDS011;25696;42.646;23.368;2022-09-21T16:56:48;5.00;;;2.33;;
39998;SDS011;25696;42.646;23.368;2022-09-21T16:59:15;6.75;;;2.90;;
39998;SDS011;25696;42.646;23.368;2022-09-21T17:01:45;5.53;;;2.10;;
39998;SDS011;25696;42.646;23.368;2022-09-21T17:04:14;3.63;;;2.28;;
39998;SDS011;25696;42.646;23.368;2022-09-21T17:17:05;37.38;;;19.25;;
39998;SDS011;25696;42.646;23.368;2022-09-21T17:22:03;33.92;;;20.15;;
39998;SDS011;25696;42.646;23.368;2022-09-21T18:23:28;8.63;;;6.05;;
39998;SDS011;25696;42.646;23.368;2022-09-21T18:44:44;9.27;;;5.25;;
39998;SDS011;25696;42.646;23.368;2022-09-21T18:49:47;24.98;;;10.75;;
39998;SDS011;25696;42.646;23.368;2022-09-21T18:52:43;13.25;;;6.72;;
39998;SDS011;25696;42.646;23.368;2022-09-21T19:00:18;7.53;;;5.50;;
39998;SDS011;25696;42.646;23.368;2022-09-21T19:05:10;11.55;;;6.53;;
39998;SDS011;25696;42.646;23.368;2022-09-21T19:10:20;10.95;;;7.90;;
39998;SDS011;25696;42.646;23.368;2022-09-21T19:13:02;14.07;;;10.18;;
39998;SDS011;25696;42.646;23.368;2022-09-21T19:15:41;20.80;;;12.50;;
39998;SDS011;25696;42.646;23.368;2022-09-21T19:21:16;21.35;;;14.15;;
39998;SDS011;25696;42.646;23.368;2022-09-21T19:31:55;25.85;;;15.27;;
39998;SDS011;25696;42.646;23.368;2022-09-21T19:34:21;13.25;;;8.40;;
39998;SDS011;25696;42.646;23.368;2022-09-21T19:36:46;12.68;;;7.63;;
39998;SDS011;25696;42.646;23.368;2022-09-21T19:39:12;14.90;;;9.45;;
39998;SDS011;25696;42.646;23.368;2022-09-21T19:47:03;15.65;;;9.18;;
39998;SDS011;25696;42.646;23.368;2022-09-21T19:49:35;13.63;;;9.93;;
39998;SDS011;25696;42.646;23.368;2022-09-21T19:52:10;11.90;;;8.05;;
39998;SDS011;25696;42.646;23.368;2022-09-21T19:54:40;12.20;;;8.13;;
39998;SDS011;25696;42.646;23.368;2022-09-21T19:57:24;10.43;;;7.82;;
39998;SDS011;25696;42.646;23.368;2022-09-21T20:02:52;15.25;;;11.02;;
39998;SDS011;25696;42.646;23.368;2022-09-21T20:11:06;11.73;;;8.20;;
39998;SDS011;25696;42.646;23.368;2022-09-21T20:13:41;14.65;;;9.63;;
39998;SDS011;25696;42.646;23.368;2022-09-21T20:19:05;13.52;;;9.43;;
39998;SDS011;25696;42.646;23.368;2022-09-21T20:21:40;9.35;;;7.65;;
39998;SDS011;25696;42.646;23.368;2022-09-21T20:24:17;23.30;;;15.20;;
39998;SDS011;25696;42.646;23.368;2022-09-21T20:26:49;16.67;;;10.85;;
39998;SDS011;25696;42.646;23.368;2022-09-21T20:29:15;11.18;;;7.82;;
39998;SDS011;25696;42.646;23.368;2022-09-21T20:31:42;9.57;;;7.68;;
39998;SDS011;25696;42.646;23.368;2022-09-21T20:34:08;23.42;;;14.80;;
39998;SDS011;25696;42.646;23.368;2022-09-21T20:36:35;10.45;;;7.90;;
39998;SDS011;25696;42.646;23.368;2022-09-21T20:39:00;15.75;;;10.25;;
39998;SDS011;25696;42.646;23.368;2022-09-21T20:41:27;26.25;;;15.40;;
39998;SDS011;25696;42.646;23.368;2022-09-21T20:43:52;18.42;;;8.60;;
39998;SDS011;25696;42.646;23.368;2022-09-21T20:46:18;10.27;;;7.35;;
39998;SDS011;25696;42.646;23.368;2022-09-21T20:48:43;21.23;;;13.80;;
39998;SDS011;25696;42.646;23.368;2022-09-21T20:51:09;14.80;;;9.77;;
39998;SDS011;25696;42.646;23.368;2022-09-21T20:53:35;15.07;;;10.50;;
39998;SDS011;25696;42.646;23.368;2022-09-21T20:56:01;11.57;;;7.95;;
39998;SDS011;25696;42.646;23.368;2022-09-21T20:58:31;10.95;;;7.72;;
39998;SDS011;25696;42.646;23.368;2022-09-21T21:01:06;10.30;;;8.18;;
39998;SDS011;25696;42.646;23.368;2022-09-21T21:03:34;10.10;;;7.68;;
39998;SDS011;25696;42.646;23.368;2022-09-21T21:06:06;11.82;;;8.27;;
39998;SDS011;25696;42.646;23.368;2022-09-21T21:08:33;9.75;;;7.38;;
39998;SDS011;25696;42.646;23.368;2022-09-21T21:10:58;9.18;;;6.97;;
39998;SDS011;25696;42.646;23.368;2022-09-21T21:13:27;8.48;;;6.40;;
39998;SDS011;25696;42.646;23.368;2022-09-21T21:15:53;9.48;;;6.47;;
39998;SDS011;25696;42.646;23.368;2022-09-21T21:18:18;10.77;;;7.97;;
39998;SDS011;25696;42.646;23.368;2022-09-21T21:20:43;9.95;;;7.10;;
39998;SDS011;25696;42.646;23.368;2022-09-21T21:23:09;10.13;;;6.85;;
39998;SDS011;25696;42.646;23.368;2022-09-21T21:25:34;8.88;;;7.15;;
39998;SDS011;25696;42.646;23.368;2022-09-21T21:28:00;11.45;;;7.40;;
39998;SDS011;25696;42.646;23.368;2022-09-21T21:30:26;9.25;;;6.90;;
39998;SDS011;25696;42.646;23.368;2022-09-21T21:32:51;13.43;;;6.78;;
39998;SDS011;25696;42.646;23.368;2022-09-21T21:35:17;8.40;;;6.57;;